createdAt,value
2018-06-17T00:02:23.180Z,6.30
2018-06-17T00:04:51.459Z,6.60
2018-06-17T00:07:19.823Z,7.63
2018-06-17T00:09:47.948Z,6.33
2018-06-17T00:12:16.845Z,6.73
2018-06-17T00:14:44.834Z,7.20
2018-06-17T00:17:13.000Z,6.70
2018-06-17T00:19:41.324Z,6.77
2018-06-17T00:22:11.065Z,6.60
2018-06-17T00:24:39.334Z,8.00
2018-06-17T00:27:08.544Z,7.50
2018-06-17T00:29:38.468Z,7.23
2018-06-17T00:32:09.878Z,6.80
2018-06-17T00:34:37.949Z,6.97
2018-06-17T00:37:06.187Z,7.70
2018-06-17T00:39:34.233Z,6.90
2018-06-17T00:42:03.757Z,6.67
2018-06-17T00:54:11.829Z,5.90
2018-06-17T00:56:39.831Z,7.40
2018-06-17T00:59:07.856Z,8.27
2018-06-17T01:01:36.103Z,7.73
2018-06-17T01:04:04.137Z,8.20
2018-06-17T01:06:32.152Z,7.70
2018-06-17T01:09:01.699Z,8.33
2018-06-17T01:11:29.853Z,7.70
2018-06-17T01:13:58.067Z,8.00
2018-06-17T01:29:21.156Z,7.60
2018-06-17T01:31:49.146Z,7.80
2018-06-17T01:34:17.318Z,7.77
2018-06-17T01:36:45.652Z,8.57
2018-06-17T01:39:13.647Z,8.27
2018-06-17T01:41:41.694Z,8.13
2018-06-17T01:44:09.758Z,7.70
2018-06-17T01:46:37.739Z,8.17
2018-06-17T01:49:05.817Z,8.60
2018-06-17T01:51:34.545Z,8.00
2018-06-17T01:54:03.884Z,7.97
2018-06-17T01:56:32.073Z,8.63
2018-06-17T01:59:00.180Z,7.90
2018-06-17T02:01:28.343Z,7.60
2018-06-17T02:04:01.878Z,8.43
2018-06-17T02:06:35.355Z,9.00
2018-06-17T02:09:08.839Z,10.03
2018-06-17T02:11:40.505Z,9.13
2018-06-17T02:14:14.430Z,9.20
2018-06-17T02:16:43.284Z,8.77
2018-06-17T02:19:11.645Z,8.90
2018-06-17T02:21:40.107Z,9.90
2018-06-17T02:24:08.926Z,9.90
2018-06-17T02:26:36.945Z,10.53
2018-06-17T02:29:05.034Z,10.07
2018-06-17T02:31:33.264Z,9.73
2018-06-17T02:34:02.133Z,9.67
2018-06-17T02:36:30.269Z,10.20
2018-06-17T02:38:59.346Z,10.70
2018-06-17T02:41:27.460Z,10.07
2018-06-17T02:43:55.502Z,9.13
2018-06-17T02:46:29.540Z,11.00
2018-06-17T02:49:03.031Z,10.40
2018-06-17T02:51:36.671Z,9.50
2018-06-17T02:54:10.817Z,10.70
2018-06-17T02:56:38.892Z,10.47
2018-06-17T02:59:06.881Z,10.43
2018-06-17T03:01:34.904Z,10.53
2018-06-17T03:04:03.335Z,10.40
2018-06-17T03:06:31.425Z,10.87
2018-06-17T03:08:59.469Z,10.50
2018-06-17T03:11:27.451Z,10.53
2018-06-17T03:13:55.469Z,11.37
2018-06-17T03:16:25.374Z,11.07
2018-06-17T03:18:53.923Z,10.60
2018-06-17T03:21:22.346Z,11.70
2018-06-17T03:23:52.879Z,11.13
2018-06-17T03:26:26.609Z,11.63
2018-06-17T03:29:02.614Z,12.13
2018-06-17T03:31:36.368Z,12.90
2018-06-17T03:34:04.958Z,12.20
2018-06-17T03:36:33.093Z,12.37
2018-06-17T03:39:01.184Z,12.43
2018-06-17T03:41:29.200Z,11.93
2018-06-17T03:43:57.194Z,12.00
2018-06-17T03:46:25.231Z,12.30
2018-06-17T03:48:53.229Z,11.10
2018-06-17T03:51:21.220Z,12.67
2018-06-17T03:53:49.534Z,11.10
2018-06-17T03:56:18.019Z,9.90
2018-06-17T03:58:46.023Z,10.40
2018-06-17T04:01:14.507Z,11.93
2018-06-17T04:03:42.960Z,10.87
2018-06-17T04:06:11.985Z,11.40
2018-06-17T04:08:40.512Z,10.53
2018-06-17T04:11:08.545Z,11.00
2018-06-17T04:13:36.536Z,10.67
2018-06-17T04:16:04.969Z,11.53
2018-06-17T04:18:33.056Z,9.60
2018-06-17T04:21:01.054Z,11.00
2018-06-17T04:23:29.092Z,10.10
2018-06-17T04:25:57.205Z,10.47
2018-06-17T04:28:25.253Z,9.60
2018-06-17T04:30:53.293Z,9.60
2018-06-17T04:33:21.313Z,9.13
2018-06-17T04:35:49.605Z,10.33
2018-06-17T04:38:17.601Z,9.37
2018-06-17T04:40:45.607Z,8.70
2018-06-17T04:43:13.620Z,8.43
2018-06-17T04:45:42.104Z,8.17
2018-06-17T04:48:10.237Z,7.60
2018-06-17T04:50:38.226Z,6.97
2018-06-17T04:53:06.385Z,6.67
2018-06-17T04:55:34.949Z,5.40
2018-06-17T04:58:04.967Z,5.77
2018-06-17T05:00:33.887Z,5.13
2018-06-17T05:03:01.874Z,5.07
2018-06-17T05:05:29.974Z,4.67
2018-06-17T05:07:57.970Z,4.47
2018-06-17T05:10:26.199Z,4.47
2018-06-17T05:12:54.190Z,5.03
2018-06-17T05:15:22.366Z,5.17
2018-06-17T05:17:50.573Z,4.50
2018-06-17T05:20:20.353Z,4.30
2018-06-17T05:22:48.653Z,4.23
2018-06-17T05:25:16.875Z,3.60
2018-06-17T05:27:44.877Z,3.73
2018-06-17T05:30:13.340Z,4.90
2018-06-17T05:32:41.352Z,4.47
2018-06-17T05:35:09.354Z,4.47
2018-06-17T05:37:37.413Z,4.17
2018-06-17T05:40:09.192Z,4.13
2018-06-17T05:42:37.313Z,4.17
2018-06-17T05:45:05.527Z,3.07
2018-06-17T05:47:33.939Z,3.20
2018-06-17T05:50:02.981Z,3.53
2018-06-17T05:52:31.058Z,3.50
2018-06-17T05:54:59.082Z,3.67
2018-06-17T05:57:27.081Z,3.30
2018-06-17T05:59:55.745Z,2.80
2018-06-17T06:02:24.993Z,3.07
2018-06-17T06:04:52.975Z,3.33
2018-06-17T06:07:22.242Z,3.37
2018-06-17T06:09:50.264Z,3.10
2018-06-17T06:12:18.370Z,3.23
2018-06-17T06:14:46.384Z,2.80
2018-06-17T06:17:15.072Z,3.00
2018-06-17T06:19:44.138Z,3.93
2018-06-17T06:22:12.671Z,2.80
2018-06-17T06:24:41.504Z,3.13
2018-06-17T06:27:09.558Z,3.10
2018-06-17T06:29:37.520Z,2.90
2018-06-17T06:32:06.561Z,2.40
2018-06-17T06:34:34.572Z,3.00
2018-06-17T06:37:03.374Z,2.73
2018-06-17T06:39:31.372Z,3.80
2018-06-17T06:41:59.417Z,2.73
2018-06-17T06:57:22.618Z,3.00
2018-06-17T06:59:50.607Z,3.80
2018-06-17T07:02:24.279Z,3.70
2018-06-17T07:04:57.900Z,2.90
2018-06-17T07:11:02.705Z,3.00
2018-06-17T07:13:30.798Z,2.40
2018-06-17T07:16:04.710Z,2.90
2018-06-17T07:18:34.133Z,2.70
2018-06-17T07:21:02.201Z,3.10
2018-06-17T07:23:30.273Z,2.80
2018-06-17T07:26:31.264Z,3.23
2018-06-17T07:29:04.851Z,2.70
2018-06-17T07:31:32.833Z,2.90
2018-06-17T07:34:01.881Z,3.03
2018-06-17T07:36:29.872Z,2.83
2018-06-17T07:38:59.013Z,2.23
2018-06-17T07:41:27.275Z,2.73
2018-06-17T07:43:55.444Z,1.97
2018-06-17T07:46:23.507Z,2.17
2018-06-17T07:49:23.812Z,2.73
2018-06-17T07:51:58.279Z,3.13
2018-06-17T07:54:26.290Z,2.63
2018-06-17T07:56:54.339Z,2.60
2018-06-17T07:59:22.406Z,2.60
2018-06-17T08:01:50.437Z,2.60
2018-06-17T08:04:18.546Z,2.10
2018-06-17T08:06:46.570Z,2.37
2018-06-17T08:09:14.579Z,2.73
2018-06-17T08:11:42.805Z,2.60
2018-06-17T08:14:11.039Z,2.40
2018-06-17T08:16:39.034Z,2.43
2018-06-17T08:19:07.552Z,2.50
2018-06-17T08:21:36.496Z,1.90
2018-06-17T08:24:04.681Z,2.77
2018-06-17T08:26:32.669Z,2.70
2018-06-17T08:29:01.768Z,2.30
2018-06-17T08:31:29.792Z,2.17
2018-06-17T08:33:57.787Z,2.30
2018-06-17T08:36:26.064Z,2.70
2018-06-17T08:38:54.094Z,3.10
2018-06-17T08:41:22.109Z,2.73
2018-06-17T08:43:50.226Z,3.00
2018-06-17T08:46:18.268Z,2.90
2018-06-17T08:48:46.280Z,3.50
2018-06-17T08:51:14.305Z,3.30
2018-06-17T08:53:42.859Z,2.03
2018-06-17T08:56:10.844Z,2.97
2018-06-17T08:58:39.328Z,2.70
2018-06-17T09:01:07.358Z,2.30
2018-06-17T09:03:37.281Z,2.83
2018-06-17T09:06:07.322Z,3.00
2018-06-17T09:08:36.077Z,2.53
2018-06-17T09:11:04.134Z,2.70
2018-06-17T09:13:32.297Z,2.50
2018-06-17T09:16:00.825Z,2.50
2018-06-17T09:18:29.100Z,2.80
2018-06-17T09:30:37.806Z,2.30
2018-06-17T09:33:05.874Z,2.50
2018-06-17T09:35:34.221Z,2.10
2018-06-17T09:38:03.229Z,2.43
2018-06-17T09:40:31.363Z,2.40
2018-06-17T09:43:00.445Z,2.27
2018-06-17T09:45:32.222Z,2.40
2018-06-17T09:48:00.498Z,2.40
2018-06-17T09:50:28.841Z,2.23
2018-06-17T09:52:56.848Z,2.90
2018-06-17T09:55:24.881Z,2.17
2018-06-17T09:57:52.905Z,2.60
2018-06-17T10:00:21.611Z,2.50
2018-06-17T10:02:53.116Z,2.03
2018-06-17T10:05:21.128Z,2.10
2018-06-17T10:07:49.514Z,2.07
2018-06-17T10:11:06.285Z,2.40
2018-06-17T10:13:36.798Z,2.10
2018-06-17T10:16:05.648Z,2.03
2018-06-17T10:18:33.948Z,1.77
2018-06-17T10:21:02.169Z,1.93
2018-06-17T10:23:30.168Z,2.27
2018-06-17T10:25:58.234Z,2.30
2018-06-17T10:28:27.452Z,2.50
2018-06-17T10:30:56.252Z,2.80
2018-06-17T10:33:24.636Z,2.10
2018-06-17T10:35:52.716Z,2.50
2018-06-17T10:38:20.705Z,2.50
2018-06-17T10:40:49.180Z,2.40
2018-06-17T10:43:19.561Z,2.40
2018-06-17T10:45:47.559Z,2.30
2018-06-17T10:48:15.812Z,2.23
2018-06-17T10:50:44.561Z,2.83
2018-06-17T10:53:12.642Z,2.57
2018-06-17T10:55:40.755Z,2.20
2018-06-17T10:58:08.930Z,2.33
2018-06-17T11:00:37.246Z,2.90
2018-06-17T11:03:05.351Z,2.30
2018-06-17T11:05:33.433Z,2.57
2018-06-17T11:08:02.404Z,2.70
2018-06-17T11:10:30.591Z,2.10
2018-06-17T11:12:58.744Z,2.40
2018-06-17T11:15:27.442Z,2.70
2018-06-17T11:17:55.445Z,2.40
2018-06-17T11:20:23.670Z,2.80
2018-06-17T11:22:51.721Z,2.30
2018-06-17T11:25:19.716Z,2.43
2018-06-17T11:27:47.788Z,2.93
2018-06-17T11:30:15.817Z,3.00
2018-06-17T11:32:43.797Z,2.90
2018-06-17T11:35:12.317Z,2.83
2018-06-17T11:37:40.597Z,3.13
2018-06-17T11:45:53.991Z,2.20
2018-06-17T11:48:22.022Z,2.50
2018-06-17T11:54:04.729Z,2.30
2018-06-17T12:06:14.822Z,2.40
2018-06-17T12:08:43.346Z,2.20
2018-06-17T12:11:11.468Z,3.13
2018-06-17T12:13:41.112Z,2.20
2018-06-17T12:16:09.644Z,2.67
2018-06-17T12:18:37.757Z,3.30
2018-06-17T12:21:05.961Z,2.80
2018-06-17T12:23:34.723Z,2.97
2018-06-17T12:26:03.750Z,2.43
2018-06-17T12:28:31.880Z,2.30
2018-06-17T12:30:59.887Z,2.60
2018-06-17T12:33:28.264Z,2.60
2018-06-17T12:35:56.316Z,2.90
2018-06-17T12:38:24.468Z,2.37
2018-06-17T12:40:53.890Z,2.43
2018-06-17T12:43:21.972Z,2.40
2018-06-17T12:45:49.955Z,2.20
2018-06-17T12:48:18.929Z,2.00
2018-06-17T12:50:47.433Z,2.40
2018-06-17T12:53:16.480Z,2.30
2018-06-17T12:55:44.843Z,2.17
2018-06-17T12:58:13.416Z,2.20
2018-06-17T13:00:42.012Z,2.13
2018-06-17T13:03:10.138Z,2.30
2018-06-17T13:05:38.268Z,2.10
2018-06-17T13:08:06.395Z,2.37
2018-06-17T13:10:34.449Z,1.93
2018-06-17T13:13:02.480Z,2.33
2018-06-17T13:15:31.567Z,2.20
2018-06-17T13:17:59.736Z,2.70
2018-06-17T13:20:27.799Z,2.40
2018-06-17T13:22:55.924Z,2.90
2018-06-17T13:25:24.292Z,1.90
2018-06-17T13:27:53.013Z,2.40
2018-06-17T13:30:23.080Z,2.40
2018-06-17T13:32:51.226Z,2.63
2018-06-17T13:35:19.274Z,1.90
2018-06-17T13:37:47.629Z,2.60
2018-06-17T13:40:17.011Z,2.33
2018-06-17T13:42:46.605Z,2.10
2018-06-17T13:45:14.711Z,2.33
2018-06-17T13:47:42.749Z,2.70
2018-06-17T13:50:12.163Z,2.80
2018-06-17T13:52:41.092Z,2.40
2018-06-17T13:55:09.688Z,2.87
2018-06-17T13:57:37.987Z,3.37
2018-06-17T14:00:08.763Z,3.03
2018-06-17T14:02:39.039Z,3.23
2018-06-17T14:05:10.008Z,3.30
2018-06-17T14:07:40.362Z,3.20
2018-06-17T14:10:13.450Z,2.87
2018-06-17T14:12:43.922Z,2.93
2018-06-17T14:15:15.634Z,3.10
2018-06-17T14:17:46.331Z,2.67
2018-06-17T14:20:16.012Z,2.43
2018-06-17T14:22:44.351Z,3.07
2018-06-17T14:25:14.668Z,2.80
2018-06-17T14:27:43.899Z,2.53
2018-06-17T14:30:14.806Z,2.73
2018-06-17T14:32:47.907Z,2.70
2018-06-17T14:35:19.052Z,3.07
2018-06-17T14:37:50.521Z,3.10
2018-06-17T14:40:19.536Z,2.70
2018-06-17T14:42:53.032Z,2.83
2018-06-17T14:45:26.978Z,2.90
2018-06-17T14:48:00.655Z,4.40
2018-06-17T14:56:09.124Z,3.07
2018-06-17T14:58:37.357Z,2.80
2018-06-17T15:01:05.465Z,2.60
2018-06-17T15:03:33.535Z,3.20
2018-06-17T15:06:02.991Z,2.47
2018-06-17T15:08:31.239Z,2.70
2018-06-17T15:11:02.500Z,2.47
2018-06-17T15:13:30.513Z,2.80
2018-06-17T15:15:59.361Z,2.80
2018-06-17T15:18:27.387Z,2.87
2018-06-17T15:20:56.324Z,2.67
2018-06-17T15:23:25.684Z,2.30
2018-06-17T15:25:55.990Z,2.40
2018-06-17T15:28:24.015Z,2.87
2018-06-17T15:30:54.985Z,2.50
2018-06-17T15:33:28.907Z,3.10
2018-06-17T15:38:09.526Z,2.87
2018-06-17T15:40:43.165Z,2.50
2018-06-17T15:43:11.906Z,2.90
2018-06-17T15:45:39.987Z,3.00
2018-06-17T15:48:08.767Z,2.40
2018-06-17T15:50:37.616Z,2.90
2018-06-17T15:53:07.012Z,2.80
2018-06-17T15:55:36.316Z,3.17
2018-06-17T15:58:06.837Z,2.70
2018-06-17T16:00:36.017Z,2.43
2018-06-17T16:03:05.618Z,3.10
2018-06-17T16:05:34.914Z,3.10
2018-06-17T16:08:03.667Z,3.70
2018-06-17T16:10:32.028Z,2.63
2018-06-17T16:13:05.427Z,2.87
2018-06-17T16:15:38.851Z,3.00
2018-06-17T16:20:13.823Z,2.90
2018-06-17T16:22:42.066Z,2.50
2018-06-17T16:25:10.158Z,2.93
2018-06-17T16:27:38.495Z,2.83
2018-06-17T16:30:07.912Z,3.23
2018-06-17T16:32:36.165Z,3.43
2018-06-17T16:35:05.363Z,2.80
2018-06-17T16:37:33.735Z,3.20
2018-06-17T16:40:02.181Z,2.90
2018-06-17T16:42:30.961Z,3.43
2018-06-17T16:44:59.311Z,3.63
2018-06-17T16:47:28.977Z,3.57
2018-06-17T16:49:57.647Z,2.77
2018-06-17T16:52:35.265Z,3.50
2018-06-17T16:55:13.065Z,3.23
2018-06-17T17:07:25.865Z,3.90
2018-06-17T17:09:55.592Z,4.20
2018-06-17T17:12:28.310Z,4.20
2018-06-17T17:14:57.817Z,4.20
2018-06-17T17:17:27.840Z,3.50
2018-06-17T17:19:57.290Z,4.37
2018-06-17T17:22:27.603Z,3.50
2018-06-17T17:24:57.451Z,4.40
2018-06-17T17:27:27.432Z,4.40
2018-06-17T17:29:56.984Z,4.00
2018-06-17T17:32:32.736Z,4.23
2018-06-17T17:35:08.257Z,3.97
2018-06-17T17:37:42.305Z,4.00
2018-06-17T17:40:16.902Z,3.67
2018-06-17T17:42:45.414Z,3.80
2018-06-17T17:45:16.909Z,3.90
2018-06-17T17:47:45.426Z,3.83
2018-06-17T17:50:16.773Z,4.13
2018-06-17T17:52:50.893Z,4.27
2018-06-17T17:55:19.130Z,4.23
2018-06-17T17:57:47.289Z,4.60
2018-06-17T18:00:19.558Z,4.10
2018-06-17T18:02:47.689Z,4.27
2018-06-17T18:05:15.952Z,4.40
2018-06-17T18:07:45.583Z,4.10
2018-06-17T18:10:13.983Z,4.63
2018-06-17T18:12:42.536Z,4.10
2018-06-17T18:15:12.859Z,4.03
2018-06-17T18:17:41.585Z,3.53
2018-06-17T18:20:12.015Z,3.93
2018-06-17T18:22:40.873Z,3.90
2018-06-17T18:27:17.324Z,3.73
2018-06-17T18:29:50.951Z,3.30
2018-06-17T18:32:25.268Z,3.50
2018-06-17T18:34:58.758Z,3.90
2018-06-17T18:37:27.244Z,4.53
2018-06-17T18:39:55.663Z,4.00
2018-06-17T18:42:24.104Z,3.80
2018-06-17T18:44:52.367Z,3.90
2018-06-17T18:47:20.952Z,3.87
2018-06-17T18:49:49.280Z,3.20
2018-06-17T18:52:20.136Z,4.10
2018-06-17T18:54:48.590Z,3.20
2018-06-17T18:57:17.379Z,3.80
2018-06-17T18:59:45.923Z,3.93
2018-06-17T19:02:15.020Z,3.57
2018-06-17T19:04:44.843Z,3.80
2018-06-17T19:07:13.254Z,2.90
2018-06-17T19:09:47.288Z,3.20
2018-06-17T19:12:21.240Z,3.47
2018-06-17T19:14:55.005Z,3.33
2018-06-17T19:17:28.851Z,4.33
2018-06-17T19:19:57.189Z,3.43
2018-06-17T19:22:26.471Z,3.00
2018-06-17T19:34:34.927Z,3.03
2018-06-17T19:37:04.919Z,3.80
2018-06-17T19:41:55.654Z,3.20
2018-06-17T19:44:26.565Z,3.80
2018-06-17T19:46:55.001Z,3.63
2018-06-17T19:49:31.008Z,4.30
2018-06-17T19:52:05.722Z,3.40
2018-06-17T19:54:39.554Z,3.40
2018-06-17T19:57:14.204Z,3.57
2018-06-17T19:59:48.171Z,3.73
2018-06-17T20:02:20.516Z,2.80
2018-06-17T20:04:49.962Z,3.40
2018-06-17T20:07:19.060Z,2.60
2018-06-17T20:09:47.628Z,3.03
2018-06-17T20:12:18.927Z,3.17
2018-06-17T20:14:49.183Z,3.13
2018-06-17T20:17:18.380Z,2.63
2018-06-17T20:19:47.015Z,3.10
2018-06-17T20:22:15.945Z,3.30
2018-06-17T20:24:44.705Z,2.60
2018-06-17T20:27:13.763Z,3.10
2018-06-17T20:29:42.844Z,2.93
2018-06-17T20:32:17.315Z,2.80
2018-06-17T20:34:51.753Z,2.70
2018-06-17T20:37:26.183Z,3.60
2018-06-17T20:40:00.701Z,2.70
2018-06-17T20:42:35.733Z,3.47
2018-06-17T20:45:05.283Z,2.93
2018-06-17T20:47:33.908Z,3.10
2018-06-17T20:50:03.695Z,3.20
2018-06-17T20:52:32.112Z,3.17
2018-06-17T20:55:00.216Z,3.43
2018-06-17T20:57:28.366Z,3.30
2018-06-17T20:59:56.708Z,3.30
2018-06-17T21:02:25.391Z,3.47
2018-06-17T21:04:53.624Z,3.23
2018-06-17T21:07:21.975Z,3.33
2018-06-17T21:09:51.182Z,3.70
2018-06-17T21:12:19.467Z,3.80
2018-06-17T21:14:47.505Z,3.27
2018-06-17T21:17:15.558Z,3.80
2018-06-17T21:19:49.311Z,4.50
2018-06-17T21:22:23.086Z,3.70
2018-06-17T21:24:56.608Z,3.70
2018-06-17T21:27:30.589Z,4.07
2018-06-17T21:29:58.652Z,5.23
2018-06-17T21:32:27.586Z,10.70
2018-06-17T21:34:55.793Z,9.97
2018-06-17T21:37:23.971Z,10.20
2018-06-17T21:39:52.051Z,16.40
2018-06-17T21:42:20.934Z,13.70
2018-06-17T21:44:49.985Z,11.83
2018-06-17T21:47:18.619Z,10.97
2018-06-17T21:49:46.997Z,9.40
2018-06-17T21:52:16.365Z,5.90
2018-06-17T21:54:44.523Z,5.20
2018-06-17T21:57:12.804Z,4.40
2018-06-17T21:59:41.207Z,4.80
2018-06-17T22:02:09.485Z,4.20
2018-06-17T22:04:41.622Z,5.47
2018-06-17T22:07:11.329Z,5.07
2018-06-17T22:09:44.939Z,6.00
2018-06-17T22:12:19.171Z,4.50
2018-06-17T22:14:52.690Z,4.50
2018-06-17T22:17:26.016Z,4.40
2018-06-17T22:19:54.060Z,4.47
2018-06-17T22:22:23.693Z,4.30
2018-06-17T22:24:51.955Z,4.70
2018-06-17T22:27:19.985Z,4.60
2018-06-17T22:29:48.201Z,4.60
2018-06-17T22:32:16.886Z,4.17
2018-06-17T22:34:45.303Z,4.67
2018-06-17T22:37:13.475Z,4.30
2018-06-17T22:39:41.615Z,4.70
2018-06-17T22:42:12.049Z,4.07
2018-06-17T22:44:40.382Z,4.50
2018-06-17T22:47:09.208Z,4.83
2018-06-17T22:49:37.486Z,4.20
2018-06-17T22:52:07.588Z,5.13
2018-06-17T22:54:41.227Z,3.70
2018-06-17T22:57:14.976Z,4.60
2018-06-17T22:59:48.801Z,4.40
2018-06-17T23:02:22.850Z,4.07
2018-06-17T23:04:56.760Z,4.43
2018-06-17T23:07:30.192Z,4.40
2018-06-17T23:09:58.474Z,4.30
2018-06-17T23:12:27.854Z,4.40
2018-06-17T23:14:56.139Z,4.43
2018-06-17T23:17:24.509Z,4.20
2018-06-17T23:19:52.566Z,4.33
2018-06-17T23:22:21.049Z,4.20
2018-06-17T23:24:49.234Z,3.87
2018-06-17T23:27:18.055Z,4.40
2018-06-17T23:29:46.107Z,4.70
2018-06-17T23:32:19.233Z,4.57
2018-06-17T23:34:47.235Z,5.27
2018-06-17T23:37:15.663Z,4.60
2018-06-17T23:39:43.823Z,3.70
2018-06-17T23:42:12.443Z,3.80
2018-06-17T23:44:40.508Z,5.07
2018-06-17T23:47:15.892Z,4.70
2018-06-17T23:49:49.896Z,4.60
2018-06-17T23:52:23.285Z,3.70
2018-06-17T23:54:57.723Z,4.73
2018-06-17T23:57:25.857Z,4.70
2018-06-17T23:59:54.385Z,4.60
